Impacts TAF Board
For situational awareness. Not to be used for flight planning purposes.
IDs:

KOTH - North Bend/SW Oregon, OR, US

Issued at 2320 UTC 05 Dec 2019
Updated at 0114 UTC 06 Dec 2019
Potential Impact None Slight Moderate High
Time0056Z 06/02Z 06/03Z 06/04Z 06/05Z 06/06Z 06/07Z 06/08Z 06/09Z 06/10Z 06/11Z 06/12Z 06/13Z 06/14Z>>
Type OBS PRVL PRVL PRVL PRVL PRVL PRVL PRVL PRVL PRVL PRVL PRVL PRVL PRVL
VIS 10 >6 >6 >6 >6 >6 >6 >6 >6 >6 >6 >6 >6 >6
CIG -- 60 60 60 60 60 50 50 50 50 50 50 50 50
Cover CLR BKN BKN BKN BKN BKN OVC OVC OVC OVC OVC OVC OVC OVC
FltCat VFR VFR VFR VFR VFR VFR VFR VFR VFR VFR VFR VFR VFR VFR
WX -- -- -- -- -- -- -- -- -- -- -- -- -- --
WDir VRB VRB VRB VRB VRB VRB 140 140 140 140 140 140 140 140
WSpd 0 3 3 3 3 3 6 6 6 6 6 6 6 6
WGst -- -- -- -- -- -- -- -- -- -- -- -- -- --
Raw TAF
KOTH 052320Z 0600/0624 33008KT P6SM SCT080
  FM060200 VRB03KT P6SM BKN060
  FM060700 14006KT P6SM OVC050
  FM062000 16010KT P6SM -RA OVC040


Raw METAR
KOTH 060056Z 00000KT 10SM CLR 10/09 A2994 RMK AO2 SLP138 T01000089
KOTH 052356Z 00000KT 8SM CLR 12/10 A2995 RMK AO2 SLP141 T01170100 10139 20072 56010
KOTH 052256Z 00000KT 8SM CLR 13/10 A2996 RMK AO2 SLP143 T01280100

METAR Board
Radar Display
Forecast Discussion
For situational awareness. Not to be used for flight planning purposes.